sensor_id;sensor_type;location;lat;lon;timestamp;temperature;humidity
33739;DHT22;20063;51.730;11.110;2022-10-16T00:01:58;15.40;99.90
33739;DHT22;20063;51.730;11.110;2022-10-16T00:04:23;15.50;99.90
33739;DHT22;20063;51.730;11.110;2022-10-16T00:06:49;15.40;99.90
33739;DHT22;20063;51.730;11.110;2022-10-16T00:09:14;15.30;99.90
33739;DHT22;20063;51.730;11.110;2022-10-16T00:11:40;15.20;99.90
33739;DHT22;20063;51.730;11.110;2022-10-16T00:14:13;15.20;99.90
33739;DHT22;20063;51.730;11.110;2022-10-16T00:16:39;15.10;99.90
33739;DHT22;20063;51.730;11.110;2022-10-16T00:19:05;15.10;99.90
33739;DHT22;20063;51.730;11.110;2022-10-16T00:21:31;15.00;99.90
33739;DHT22;20063;51.730;11.110;2022-10-16T00:24:00;15.00;99.90
33739;DHT22;20063;51.730;11.110;2022-10-16T00:26:27;15.00;99.90
33739;DHT22;20063;51.730;11.110;2022-10-16T00:28:53;14.90;99.90
33739;DHT22;20063;51.730;11.110;2022-10-16T00:31:20;14.90;99.90
33739;DHT22;20063;51.730;11.110;2022-10-16T00:33:46;14.90;99.90
33739;DHT22;20063;51.730;11.110;2022-10-16T00:36:15;14.90;99.90
33739;DHT22;20063;51.730;11.110;2022-10-16T00:38:42;14.90;99.90
33739;DHT22;20063;51.730;11.110;2022-10-16T00:41:12;14.80;99.90
33739;DHT22;20063;51.730;11.110;2022-10-16T00:43:44;14.80;99.90
33739;DHT22;20063;51.730;11.110;2022-10-16T00:46:21;14.80;99.90
33739;DHT22;20063;51.730;11.110;2022-10-16T00:49:11;14.80;99.90
33739;DHT22;20063;51.730;11.110;2022-10-16T00:51:43;14.70;99.90
33739;DHT22;20063;51.730;11.110;2022-10-16T00:54:13;14.60;99.90
33739;DHT22;20063;51.730;11.110;2022-10-16T00:56:40;14.60;99.90
33739;DHT22;20063;51.730;11.110;2022-10-16T00:59:13;14.50;99.90
33739;DHT22;20063;51.730;11.110;2022-10-16T01:01:40;14.40;99.90
33739;DHT22;20063;51.730;11.110;2022-10-16T01:04:06;14.40;99.90
33739;DHT22;20063;51.730;11.110;2022-10-16T01:07:03;14.40;99.90
33739;DHT22;20063;51.730;11.110;2022-10-16T01:09:52;14.30;99.90
33739;DHT22;20063;51.730;11.110;2022-10-16T01:12:38;14.20;99.90
33739;DHT22;20063;51.730;11.110;2022-10-16T01:15:17;14.20;99.90
33739;DHT22;20063;51.730;11.110;2022-10-16T01:17:57;14.20;99.90
33739;DHT22;20063;51.730;11.110;2022-10-16T01:28:28;14.10;99.90
33739;DHT22;20063;51.730;11.110;2022-10-16T01:30:58;14.10;99.90
33739;DHT22;20063;51.730;11.110;2022-10-16T01:33:30;14.10;99.90
33739;DHT22;20063;51.730;11.110;2022-10-16T01:36:02;14.20;99.90
33739;DHT22;20063;51.730;11.110;2022-10-16T01:38:35;14.20;99.90
33739;DHT22;20063;51.730;11.110;2022-10-16T01:41:21;14.20;99.90
33739;DHT22;20063;51.730;11.110;2022-10-16T01:43:57;14.20;99.90
33739;DHT22;20063;51.730;11.110;2022-10-16T01:46:24;14.20;99.90
33739;DHT22;20063;51.730;11.110;2022-10-16T01:48:52;14.30;99.90
33739;DHT22;20063;51.730;11.110;2022-10-16T01:51:19;14.20;99.90
33739;DHT22;20063;51.730;11.110;2022-10-16T01:53:49;14.20;99.90
33739;DHT22;20063;51.730;11.110;2022-10-16T01:56:18;14.20;99.90
33739;DHT22;20063;51.730;11.110;2022-10-16T02:01:54;14.30;99.90
33739;DHT22;20063;51.730;11.110;2022-10-16T02:04:24;14.30;99.90
33739;DHT22;20063;51.730;11.110;2022-10-16T02:06:53;14.30;99.90
33739;DHT22;20063;51.730;11.110;2022-10-16T02:09:19;14.30;99.90
33739;DHT22;20063;51.730;11.110;2022-10-16T02:11:45;14.30;99.90
33739;DHT22;20063;51.730;11.110;2022-10-16T02:14:11;14.40;99.90
33739;DHT22;20063;51.730;11.110;2022-10-16T02:16:40;14.40;99.90
33739;DHT22;20063;51.730;11.110;2022-10-16T02:19:07;14.40;99.90
33739;DHT22;20063;51.730;11.110;2022-10-16T02:29:24;14.50;99.90
33739;DHT22;20063;51.730;11.110;2022-10-16T02:31:55;14.50;99.90
33739;DHT22;20063;51.730;11.110;2022-10-16T02:34:22;14.50;99.90
33739;DHT22;20063;51.730;11.110;2022-10-16T02:36:50;14.50;99.90
33739;DHT22;20063;51.730;11.110;2022-10-16T02:39:18;14.50;99.90
33739;DHT22;20063;51.730;11.110;2022-10-16T02:41:43;14.50;99.90
33739;DHT22;20063;51.730;11.110;2022-10-16T02:44:09;14.50;99.90
33739;DHT22;20063;51.730;11.110;2022-10-16T02:46:34;14.50;99.90
33739;DHT22;20063;51.730;11.110;2022-10-16T02:49:00;14.50;99.90
33739;DHT22;20063;51.730;11.110;2022-10-16T02:51:26;14.50;99.90
33739;DHT22;20063;51.730;11.110;2022-10-16T02:53:51;14.50;99.90
33739;DHT22;20063;51.730;11.110;2022-10-16T02:56:17;14.40;99.90
33739;DHT22;20063;51.730;11.110;2022-10-16T02:58:42;14.40;99.90
33739;DHT22;20063;51.730;11.110;2022-10-16T03:01:08;14.40;99.90
33739;DHT22;20063;51.730;11.110;2022-10-16T03:03:34;14.50;99.90
33739;DHT22;20063;51.730;11.110;2022-10-16T03:05:59;14.50;99.90
33739;DHT22;20063;51.730;11.110;2022-10-16T03:08:26;14.40;99.90
33739;DHT22;20063;51.730;11.110;2022-10-16T03:10:52;14.40;99.90
33739;DHT22;20063;51.730;11.110;2022-10-16T03:13:18;14.40;99.90
33739;DHT22;20063;51.730;11.110;2022-10-16T03:15:45;14.30;99.90
33739;DHT22;20063;51.730;11.110;2022-10-16T03:18:11;14.30;99.90
33739;DHT22;20063;51.730;11.110;2022-10-16T03:20:37;14.30;99.90
33739;DHT22;20063;51.730;11.110;2022-10-16T03:23:03;14.30;99.90
33739;DHT22;20063;51.730;11.110;2022-10-16T03:25:29;14.20;99.90
33739;DHT22;20063;51.730;11.110;2022-10-16T03:27:54;14.20;99.90
33739;DHT22;20063;51.730;11.110;2022-10-16T03:30:20;14.20;99.90
33739;DHT22;20063;51.730;11.110;2022-10-16T03:32:46;14.20;99.90
33739;DHT22;20063;51.730;11.110;2022-10-16T03:35:12;14.10;99.90
33739;DHT22;20063;51.730;11.110;2022-10-16T03:37:38;14.10;99.90
33739;DHT22;20063;51.730;11.110;2022-10-16T03:40:04;14.20;99.90
33739;DHT22;20063;51.730;11.110;2022-10-16T03:42:32;14.10;99.90
33739;DHT22;20063;51.730;11.110;2022-10-16T03:44:57;14.10;99.90
33739;DHT22;20063;51.730;11.110;2022-10-16T03:47:38;14.20;99.90
33739;DHT22;20063;51.730;11.110;2022-10-16T03:50:09;14.20;99.90
33739;DHT22;20063;51.730;11.110;2022-10-16T03:52:42;14.30;99.90
33739;DHT22;20063;51.730;11.110;2022-10-16T03:55:26;14.40;99.90
33739;DHT22;20063;51.730;11.110;2022-10-16T04:01:11;14.60;99.90
33739;DHT22;20063;51.730;11.110;2022-10-16T04:03:53;14.60;99.90
33739;DHT22;20063;51.730;11.110;2022-10-16T04:06:28;14.70;99.90
33739;DHT22;20063;51.730;11.110;2022-10-16T04:08:55;14.70;99.90
33739;DHT22;20063;51.730;11.110;2022-10-16T04:11:21;14.70;99.90
33739;DHT22;20063;51.730;11.110;2022-10-16T04:13:49;14.70;99.90
33739;DHT22;20063;51.730;11.110;2022-10-16T04:16:25;14.70;99.90
33739;DHT22;20063;51.730;11.110;2022-10-16T04:19:03;14.70;99.90
33739;DHT22;20063;51.730;11.110;2022-10-16T04:21:33;14.80;99.90
33739;DHT22;20063;51.730;11.110;2022-10-16T04:24:03;14.80;99.90
33739;DHT22;20063;51.730;11.110;2022-10-16T04:26:29;14.80;99.90
33739;DHT22;20063;51.730;11.110;2022-10-16T04:28:57;14.80;99.90
33739;DHT22;20063;51.730;11.110;2022-10-16T04:31:35;14.80;99.90
33739;DHT22;20063;51.730;11.110;2022-10-16T04:37:44;14.80;99.90
33739;DHT22;20063;51.730;11.110;2022-10-16T04:40:10;14.70;99.90
33739;DHT22;20063;51.730;11.110;2022-10-16T04:42:36;14.70;99.90
33739;DHT22;20063;51.730;11.110;2022-10-16T04:45:02;14.70;99.90
33739;DHT22;20063;51.730;11.110;2022-10-16T04:47:30;14.60;99.90
33739;DHT22;20063;51.730;11.110;2022-10-16T04:49:59;14.60;99.90
33739;DHT22;20063;51.730;11.110;2022-10-16T04:52:28;14.50;99.90
33739;DHT22;20063;51.730;11.110;2022-10-16T04:54:58;14.50;99.90
33739;DHT22;20063;51.730;11.110;2022-10-16T04:57:26;14.40;99.90
33739;DHT22;20063;51.730;11.110;2022-10-16T04:59:52;14.30;99.90
33739;DHT22;20063;51.730;11.110;2022-10-16T05:02:18;14.30;99.90
33739;DHT22;20063;51.730;11.110;2022-10-16T05:04:43;14.30;99.90
33739;DHT22;20063;51.730;11.110;2022-10-16T05:07:09;14.20;99.90
33739;DHT22;20063;51.730;11.110;2022-10-16T05:09:35;14.20;99.90
33739;DHT22;20063;51.730;11.110;2022-10-16T05:12:00;14.30;99.90
33739;DHT22;20063;51.730;11.110;2022-10-16T05:14:26;14.20;99.90
33739;DHT22;20063;51.730;11.110;2022-10-16T05:16:51;14.20;99.90
33739;DHT22;20063;51.730;11.110;2022-10-16T05:19:17;14.30;99.90
33739;DHT22;20063;51.730;11.110;2022-10-16T05:21:43;14.30;99.90
33739;DHT22;20063;51.730;11.110;2022-10-16T05:24:08;14.30;99.90
33739;DHT22;20063;51.730;11.110;2022-10-16T05:26:34;14.40;99.90
33739;DHT22;20063;51.730;11.110;2022-10-16T05:29:00;14.40;99.90
33739;DHT22;20063;51.730;11.110;2022-10-16T05:31:26;14.40;99.90
33739;DHT22;20063;51.730;11.110;2022-10-16T05:33:51;14.40;99.90
33739;DHT22;20063;51.730;11.110;2022-10-16T05:36:17;14.50;99.90
33739;DHT22;20063;51.730;11.110;2022-10-16T05:38:43;14.50;99.90
33739;DHT22;20063;51.730;11.110;2022-10-16T05:41:09;14.50;99.90
33739;DHT22;20063;51.730;11.110;2022-10-16T05:43:35;14.50;99.90
33739;DHT22;20063;51.730;11.110;2022-10-16T05:46:04;14.50;99.90
33739;DHT22;20063;51.730;11.110;2022-10-16T05:48:31;14.50;99.90
33739;DHT22;20063;51.730;11.110;2022-10-16T05:51:05;14.50;99.90
33739;DHT22;20063;51.730;11.110;2022-10-16T05:53:33;14.60;99.90
33739;DHT22;20063;51.730;11.110;2022-10-16T05:55:59;14.60;99.90
33739;DHT22;20063;51.730;11.110;2022-10-16T05:58:28;14.70;99.90
33739;DHT22;20063;51.730;11.110;2022-10-16T06:01:05;14.70;99.90
33739;DHT22;20063;51.730;11.110;2022-10-16T06:03:32;14.90;99.90
33739;DHT22;20063;51.730;11.110;2022-10-16T06:05:59;14.80;99.90
33739;DHT22;20063;51.730;11.110;2022-10-16T06:08:24;14.90;99.90
33739;DHT22;20063;51.730;11.110;2022-10-16T06:11:02;14.90;99.90
33739;DHT22;20063;51.730;11.110;2022-10-16T06:13:27;14.90;99.90
33739;DHT22;20063;51.730;11.110;2022-10-16T06:15:56;14.90;99.90
33739;DHT22;20063;51.730;11.110;2022-10-16T06:18:22;14.90;99.90
33739;DHT22;20063;51.730;11.110;2022-10-16T06:20:47;14.90;99.90
33739;DHT22;20063;51.730;11.110;2022-10-16T06:23:13;14.90;99.90
33739;DHT22;20063;51.730;11.110;2022-10-16T06:25:39;14.90;99.90
33739;DHT22;20063;51.730;11.110;2022-10-16T06:28:04;15.00;99.90
33739;DHT22;20063;51.730;11.110;2022-10-16T06:30:31;15.00;99.90
33739;DHT22;20063;51.730;11.110;2022-10-16T06:32:57;15.00;99.90
33739;DHT22;20063;51.730;11.110;2022-10-16T06:35:22;15.10;99.90
33739;DHT22;20063;51.730;11.110;2022-10-16T06:37:49;15.00;99.90
33739;DHT22;20063;51.730;11.110;2022-10-16T06:40:15;15.10;99.90
33739;DHT22;20063;51.730;11.110;2022-10-16T06:42:41;15.00;99.90
33739;DHT22;20063;51.730;11.110;2022-10-16T06:45:07;15.00;99.90
33739;DHT22;20063;51.730;11.110;2022-10-16T06:47:33;15.00;99.90
33739;DHT22;20063;51.730;11.110;2022-10-16T06:49:58;15.10;99.90
33739;DHT22;20063;51.730;11.110;2022-10-16T06:52:24;15.10;99.90
33739;DHT22;20063;51.730;11.110;2022-10-16T06:55:03;15.20;99.90
33739;DHT22;20063;51.730;11.110;2022-10-16T06:57:29;15.30;99.90
33739;DHT22;20063;51.730;11.110;2022-10-16T06:59:55;15.40;99.90
33739;DHT22;20063;51.730;11.110;2022-10-16T07:02:21;15.40;99.90
33739;DHT22;20063;51.730;11.110;2022-10-16T07:04:47;15.30;99.90
33739;DHT22;20063;51.730;11.110;2022-10-16T07:07:13;15.40;99.90
33739;DHT22;20063;51.730;11.110;2022-10-16T07:09:40;15.40;99.90
33739;DHT22;20063;51.730;11.110;2022-10-16T07:12:05;15.40;99.90
33739;DHT22;20063;51.730;11.110;2022-10-16T07:14:31;15.40;99.90
33739;DHT22;20063;51.730;11.110;2022-10-16T07:16:57;15.40;99.90
33739;DHT22;20063;51.730;11.110;2022-10-16T07:19:23;15.50;99.90
33739;DHT22;20063;51.730;11.110;2022-10-16T07:21:49;15.50;99.90
33739;DHT22;20063;51.730;11.110;2022-10-16T07:24:16;15.50;99.90
33739;DHT22;20063;51.730;11.110;2022-10-16T07:26:43;15.60;99.90
33739;DHT22;20063;51.730;11.110;2022-10-16T07:29:17;15.60;99.90
33739;DHT22;20063;51.730;11.110;2022-10-16T07:31:43;15.60;99.90
33739;DHT22;20063;51.730;11.110;2022-10-16T07:34:11;15.60;99.90
33739;DHT22;20063;51.730;11.110;2022-10-16T07:36:37;15.60;99.90
33739;DHT22;20063;51.730;11.110;2022-10-16T07:39:03;15.60;99.90
33739;DHT22;20063;51.730;11.110;2022-10-16T07:41:29;15.70;99.90
33739;DHT22;20063;51.730;11.110;2022-10-16T07:43:56;15.70;99.90
33739;DHT22;20063;51.730;11.110;2022-10-16T07:46:25;15.80;99.90
33739;DHT22;20063;51.730;11.110;2022-10-16T07:48:51;15.80;99.90
33739;DHT22;20063;51.730;11.110;2022-10-16T07:51:19;15.80;99.90
33739;DHT22;20063;51.730;11.110;2022-10-16T07:53:46;15.90;99.90
33739;DHT22;20063;51.730;11.110;2022-10-16T07:56:12;15.80;99.90
33739;DHT22;20063;51.730;11.110;2022-10-16T07:58:38;15.80;99.90
33739;DHT22;20063;51.730;11.110;2022-10-16T08:01:09;15.80;99.90
33739;DHT22;20063;51.730;11.110;2022-10-16T08:03:35;15.80;99.90
33739;DHT22;20063;51.730;11.110;2022-10-16T08:06:02;15.90;99.90
33739;DHT22;20063;51.730;11.110;2022-10-16T08:08:28;16.00;99.90
33739;DHT22;20063;51.730;11.110;2022-10-16T08:10:54;16.00;99.90
33739;DHT22;20063;51.730;11.110;2022-10-16T08:13:20;16.00;99.90
33739;DHT22;20063;51.730;11.110;2022-10-16T08:15:46;16.10;99.90
33739;DHT22;20063;51.730;11.110;2022-10-16T08:18:13;16.10;99.90
33739;DHT22;20063;51.730;11.110;2022-10-16T08:20:39;16.10;99.90
33739;DHT22;20063;51.730;11.110;2022-10-16T08:23:06;16.10;99.90
33739;DHT22;20063;51.730;11.110;2022-10-16T08:25:35;16.10;99.90
33739;DHT22;20063;51.730;11.110;2022-10-16T08:28:04;16.20;99.90
33739;DHT22;20063;51.730;11.110;2022-10-16T08:30:31;16.20;99.90
33739;DHT22;20063;51.730;11.110;2022-10-16T08:32:56;16.30;99.90
33739;DHT22;20063;51.730;11.110;2022-10-16T08:35:23;16.30;99.90
33739;DHT22;20063;51.730;11.110;2022-10-16T08:37:49;16.30;99.90
33739;DHT22;20063;51.730;11.110;2022-10-16T08:43:23;16.30;99.90
33739;DHT22;20063;51.730;11.110;2022-10-16T08:48:58;16.30;99.90
33739;DHT22;20063;51.730;11.110;2022-10-16T08:51:30;16.30;99.90
33739;DHT22;20063;51.730;11.110;2022-10-16T08:54:05;16.30;99.90
33739;DHT22;20063;51.730;11.110;2022-10-16T08:56:32;16.20;99.90
33739;DHT22;20063;51.730;11.110;2022-10-16T08:58:59;16.30;99.90
33739;DHT22;20063;51.730;11.110;2022-10-16T09:01:37;16.30;99.90
33739;DHT22;20063;51.730;11.110;2022-10-16T09:04:52;16.30;99.90
33739;DHT22;20063;51.730;11.110;2022-10-16T09:07:19;16.40;99.90
33739;DHT22;20063;51.730;11.110;2022-10-16T09:12:39;16.40;99.90
33739;DHT22;20063;51.730;11.110;2022-10-16T09:18:02;16.40;99.90
33739;DHT22;20063;51.730;11.110;2022-10-16T09:25:31;16.60;99.90
33739;DHT22;20063;51.730;11.110;2022-10-16T09:27:58;16.70;99.90
33739;DHT22;20063;51.730;11.110;2022-10-16T09:30:27;16.70;99.90
33739;DHT22;20063;51.730;11.110;2022-10-16T09:32:55;16.70;99.90
33739;DHT22;20063;51.730;11.110;2022-10-16T09:35:31;16.70;99.90
33739;DHT22;20063;51.730;11.110;2022-10-16T09:37:57;16.70;99.90
33739;DHT22;20063;51.730;11.110;2022-10-16T09:45:39;16.80;99.90
33739;DHT22;20063;51.730;11.110;2022-10-16T09:48:13;16.80;99.90
33739;DHT22;20063;51.730;11.110;2022-10-16T09:50:43;16.80;99.90
33739;DHT22;20063;51.730;11.110;2022-10-16T09:53:13;17.00;99.90
33739;DHT22;20063;51.730;11.110;2022-10-16T09:55:49;17.00;99.90
33739;DHT22;20063;51.730;11.110;2022-10-16T09:58:15;17.00;99.90
33739;DHT22;20063;51.730;11.110;2022-10-16T10:00:48;17.00;99.90
33739;DHT22;20063;51.730;11.110;2022-10-16T10:03:33;17.10;99.90
33739;DHT22;20063;51.730;11.110;2022-10-16T10:06:05;17.10;99.90
33739;DHT22;20063;51.730;11.110;2022-10-16T10:08:37;17.10;99.90
33739;DHT22;20063;51.730;11.110;2022-10-16T10:11:03;17.10;99.90
33739;DHT22;20063;51.730;11.110;2022-10-16T10:13:30;17.10;99.90
33739;DHT22;20063;51.730;11.110;2022-10-16T10:15:55;17.10;99.90
33739;DHT22;20063;51.730;11.110;2022-10-16T10:18:22;17.20;99.90
33739;DHT22;20063;51.730;11.110;2022-10-16T10:21:00;17.40;99.90
33739;DHT22;20063;51.730;11.110;2022-10-16T10:23:28;17.60;99.90
33739;DHT22;20063;51.730;11.110;2022-10-16T10:26:18;17.70;99.90
33739;DHT22;20063;51.730;11.110;2022-10-16T10:29:01;17.80;99.90
33739;DHT22;20063;51.730;11.110;2022-10-16T10:31:46;17.80;99.90
33739;DHT22;20063;51.730;11.110;2022-10-16T10:37:51;18.00;99.90
33739;DHT22;20063;51.730;11.110;2022-10-16T10:40:05;18.00;99.90
33739;DHT22;20063;51.730;11.110;2022-10-16T10:43:06;18.10;99.90
33739;DHT22;20063;51.730;11.110;2022-10-16T10:51:19;18.20;99.90
33739;DHT22;20063;51.730;11.110;2022-10-16T11:01:56;18.50;99.90
33739;DHT22;20063;51.730;11.110;2022-10-16T11:07:20;18.40;99.90
33739;DHT22;20063;51.730;11.110;2022-10-16T11:09:58;18.40;99.90
33739;DHT22;20063;51.730;11.110;2022-10-16T11:12:31;18.40;99.90
33739;DHT22;20063;51.730;11.110;2022-10-16T11:17:48;18.40;99.90
33739;DHT22;20063;51.730;11.110;2022-10-16T11:20:20;18.30;99.90
33739;DHT22;20063;51.730;11.110;2022-10-16T11:23:50;18.30;99.90
33739;DHT22;20063;51.730;11.110;2022-10-16T11:25:45;18.20;99.90
33739;DHT22;20063;51.730;11.110;2022-10-16T11:28:37;18.10;99.90
33739;DHT22;20063;51.730;11.110;2022-10-16T11:32:01;18.10;99.90
33739;DHT22;20063;51.730;11.110;2022-10-16T11:37:11;18.30;99.90
33739;DHT22;20063;51.730;11.110;2022-10-16T11:39:38;18.40;99.90
33739;DHT22;20063;51.730;11.110;2022-10-16T11:42:13;18.50;99.90
33739;DHT22;20063;51.730;11.110;2022-10-16T11:49:46;18.70;99.90
33739;DHT22;20063;51.730;11.110;2022-10-16T11:52:28;18.70;99.90
33739;DHT22;20063;51.730;11.110;2022-10-16T11:57:35;18.80;99.90
33739;DHT22;20063;51.730;11.110;2022-10-16T12:00:14;18.80;99.90
33739;DHT22;20063;51.730;11.110;2022-10-16T12:10:34;18.60;99.90
33739;DHT22;20063;51.730;11.110;2022-10-16T12:13:37;18.70;99.90
33739;DHT22;20063;51.730;11.110;2022-10-16T12:18:39;19.00;99.90
33739;DHT22;20063;51.730;11.110;2022-10-16T12:21:05;19.00;99.90
33739;DHT22;20063;51.730;11.110;2022-10-16T12:23:53;19.00;99.90
33739;DHT22;20063;51.730;11.110;2022-10-16T12:26:27;19.10;99.90
33739;DHT22;20063;51.730;11.110;2022-10-16T12:28:54;19.20;99.90
33739;DHT22;20063;51.730;11.110;2022-10-16T12:31:20;19.20;99.90
33739;DHT22;20063;51.730;11.110;2022-10-16T12:34:00;19.20;99.90
33739;DHT22;20063;51.730;11.110;2022-10-16T12:36:31;19.20;99.90
33739;DHT22;20063;51.730;11.110;2022-10-16T12:38:59;19.30;99.90
33739;DHT22;20063;51.730;11.110;2022-10-16T12:41:27;19.40;99.90
33739;DHT22;20063;51.730;11.110;2022-10-16T12:43:55;19.50;99.90
33739;DHT22;20063;51.730;11.110;2022-10-16T12:46:24;19.50;99.90
33739;DHT22;20063;51.730;11.110;2022-10-16T12:51:54;19.50;99.90
33739;DHT22;20063;51.730;11.110;2022-10-16T12:54:40;19.60;99.90
33739;DHT22;20063;51.730;11.110;2022-10-16T13:00:13;19.60;99.90
33739;DHT22;20063;51.730;11.110;2022-10-16T13:02:51;19.60;99.90
33739;DHT22;20063;51.730;11.110;2022-10-16T13:11:41;19.70;99.90
33739;DHT22;20063;51.730;11.110;2022-10-16T13:25:27;19.80;99.90
33739;DHT22;20063;51.730;11.110;2022-10-16T13:28:04;19.90;99.90
33739;DHT22;20063;51.730;11.110;2022-10-16T13:30:38;19.80;99.90
33739;DHT22;20063;51.730;11.110;2022-10-16T13:33:12;19.70;99.90
33739;DHT22;20063;51.730;11.110;2022-10-16T13:35:50;19.70;99.90
33739;DHT22;20063;51.730;11.110;2022-10-16T13:38:17;19.60;99.90
33739;DHT22;20063;51.730;11.110;2022-10-16T13:43:21;19.60;99.90
33739;DHT22;20063;51.730;11.110;2022-10-16T13:46:18;19.60;99.90
33739;DHT22;20063;51.730;11.110;2022-10-16T13:48:44;19.60;99.90
33739;DHT22;20063;51.730;11.110;2022-10-16T13:53:36;19.60;99.90
33739;DHT22;20063;51.730;11.110;2022-10-16T13:56:04;19.50;99.90
33739;DHT22;20063;51.730;11.110;2022-10-16T13:58:30;19.50;99.90
33739;DHT22;20063;51.730;11.110;2022-10-16T14:00:58;19.50;99.90
33739;DHT22;20063;51.730;11.110;2022-10-16T14:03:25;19.60;99.30
33739;DHT22;20063;51.730;11.110;2022-10-16T14:05:58;19.60;99.90
33739;DHT22;20063;51.730;11.110;2022-10-16T14:08:25;19.80;99.20
33739;DHT22;20063;51.730;11.110;2022-10-16T14:10:54;20.10;97.50
33739;DHT22;20063;51.730;11.110;2022-10-16T14:13:31;20.20;97.40
33739;DHT22;20063;51.730;11.110;2022-10-16T14:16:09;20.20;98.30
33739;DHT22;20063;51.730;11.110;2022-10-16T14:18:37;20.20;99.20
33739;DHT22;20063;51.730;11.110;2022-10-16T14:21:12;20.10;99.80
33739;DHT22;20063;51.730;11.110;2022-10-16T14:23:40;20.10;99.90
33739;DHT22;20063;51.730;11.110;2022-10-16T14:26:12;20.00;99.90
33739;DHT22;20063;51.730;11.110;2022-10-16T14:28:40;19.90;99.90
33739;DHT22;20063;51.730;11.110;2022-10-16T14:31:26;19.90;99.90
33739;DHT22;20063;51.730;11.110;2022-10-16T14:33:51;19.80;99.90
33739;DHT22;20063;51.730;11.110;2022-10-16T14:36:17;19.80;99.90
33739;DHT22;20063;51.730;11.110;2022-10-16T14:41:31;19.90;99.90
33739;DHT22;20063;51.730;11.110;2022-10-16T14:44:02;19.90;99.90
33739;DHT22;20063;51.730;11.110;2022-10-16T14:46:35;19.80;99.90
33739;DHT22;20063;51.730;11.110;2022-10-16T14:51:38;19.90;99.90
33739;DHT22;20063;51.730;11.110;2022-10-16T14:54:04;20.10;99.90
33739;DHT22;20063;51.730;11.110;2022-10-16T14:56:34;20.30;99.90
33739;DHT22;20063;51.730;11.110;2022-10-16T14:59:00;20.50;99.90
33739;DHT22;20063;51.730;11.110;2022-10-16T15:01:27;20.70;99.90
33739;DHT22;20063;51.730;11.110;2022-10-16T15:03:53;20.60;99.90
33739;DHT22;20063;51.730;11.110;2022-10-16T15:06:20;20.50;99.90
33739;DHT22;20063;51.730;11.110;2022-10-16T15:08:46;20.30;99.90
33739;DHT22;20063;51.730;11.110;2022-10-16T15:11:15;20.20;99.90
33739;DHT22;20063;51.730;11.110;2022-10-16T15:13:41;19.90;99.90
33739;DHT22;20063;51.730;11.110;2022-10-16T15:16:14;19.80;99.90
33739;DHT22;20063;51.730;11.110;2022-10-16T15:18:41;19.60;99.90
33739;DHT22;20063;51.730;11.110;2022-10-16T15:21:06;19.50;99.90
33739;DHT22;20063;51.730;11.110;2022-10-16T15:23:32;19.30;99.90
33739;DHT22;20063;51.730;11.110;2022-10-16T15:25:58;19.20;99.90
33739;DHT22;20063;51.730;11.110;2022-10-16T15:28:25;19.10;99.90
33739;DHT22;20063;51.730;11.110;2022-10-16T15:30:55;19.00;99.90
33739;DHT22;20063;51.730;11.110;2022-10-16T15:33:24;18.80;99.90
33739;DHT22;20063;51.730;11.110;2022-10-16T15:35:52;18.70;99.90
33739;DHT22;20063;51.730;11.110;2022-10-16T15:38:20;18.60;99.90
33739;DHT22;20063;51.730;11.110;2022-10-16T15:40:47;18.40;99.90
33739;DHT22;20063;51.730;11.110;2022-10-16T15:43:12;18.30;99.90
33739;DHT22;20063;51.730;11.110;2022-10-16T15:45:38;18.30;99.90
33739;DHT22;20063;51.730;11.110;2022-10-16T15:48:04;18.10;99.90
33739;DHT22;20063;51.730;11.110;2022-10-16T15:50:31;17.90;99.90
33739;DHT22;20063;51.730;11.110;2022-10-16T15:52:57;17.80;99.90
33739;DHT22;20063;51.730;11.110;2022-10-16T15:55:23;17.70;99.90
33739;DHT22;20063;51.730;11.110;2022-10-16T15:57:54;17.60;99.90
33739;DHT22;20063;51.730;11.110;2022-10-16T16:00:20;17.50;99.90
33739;DHT22;20063;51.730;11.110;2022-10-16T16:02:51;17.40;99.90
33739;DHT22;20063;51.730;11.110;2022-10-16T16:05:18;17.20;99.90
33739;DHT22;20063;51.730;11.110;2022-10-16T16:07:44;17.10;99.90
33739;DHT22;20063;51.730;11.110;2022-10-16T16:10:10;17.00;99.90
33739;DHT22;20063;51.730;11.110;2022-10-16T16:12:37;16.90;99.90
33739;DHT22;20063;51.730;11.110;2022-10-16T16:15:04;16.80;99.90
33739;DHT22;20063;51.730;11.110;2022-10-16T16:17:32;16.70;99.90
33739;DHT22;20063;51.730;11.110;2022-10-16T16:19:57;16.60;99.90
33739;DHT22;20063;51.730;11.110;2022-10-16T16:22:23;16.50;99.90
33739;DHT22;20063;51.730;11.110;2022-10-16T16:24:49;16.40;99.90
33739;DHT22;20063;51.730;11.110;2022-10-16T16:27:15;16.40;99.90
33739;DHT22;20063;51.730;11.110;2022-10-16T16:29:40;16.30;99.90
33739;DHT22;20063;51.730;11.110;2022-10-16T16:32:06;16.20;99.90
33739;DHT22;20063;51.730;11.110;2022-10-16T16:34:32;16.10;99.90
33739;DHT22;20063;51.730;11.110;2022-10-16T16:36:58;16.00;99.90
33739;DHT22;20063;51.730;11.110;2022-10-16T16:39:24;16.00;99.90
33739;DHT22;20063;51.730;11.110;2022-10-16T16:41:49;15.90;99.90
33739;DHT22;20063;51.730;11.110;2022-10-16T16:44:16;15.90;99.90
33739;DHT22;20063;51.730;11.110;2022-10-16T16:46:43;15.80;99.90
33739;DHT22;20063;51.730;11.110;2022-10-16T16:49:10;15.70;99.90
33739;DHT22;20063;51.730;11.110;2022-10-16T16:51:37;15.70;99.90
33739;DHT22;20063;51.730;11.110;2022-10-16T16:54:02;15.70;99.90
33739;DHT22;20063;51.730;11.110;2022-10-16T16:56:28;15.80;99.90
33739;DHT22;20063;51.730;11.110;2022-10-16T16:58:55;15.90;99.90
33739;DHT22;20063;51.730;11.110;2022-10-16T17:01:23;15.90;99.90
33739;DHT22;20063;51.730;11.110;2022-10-16T17:03:51;16.10;99.90
33739;DHT22;20063;51.730;11.110;2022-10-16T17:06:19;16.20;99.90
33739;DHT22;20063;51.730;11.110;2022-10-16T17:08:46;16.10;99.90
33739;DHT22;20063;51.730;11.110;2022-10-16T17:11:14;16.20;99.90
33739;DHT22;20063;51.730;11.110;2022-10-16T17:13:40;16.20;99.90
33739;DHT22;20063;51.730;11.110;2022-10-16T17:16:06;16.30;99.90
33739;DHT22;20063;51.730;11.110;2022-10-16T17:18:32;16.30;99.90
33739;DHT22;20063;51.730;11.110;2022-10-16T17:20:59;16.40;99.90
33739;DHT22;20063;51.730;11.110;2022-10-16T17:23:25;16.40;99.90
33739;DHT22;20063;51.730;11.110;2022-10-16T17:25:51;16.40;99.90
33739;DHT22;20063;51.730;11.110;2022-10-16T17:28:16;16.40;99.90
33739;DHT22;20063;51.730;11.110;2022-10-16T17:30:43;16.30;99.90
33739;DHT22;20063;51.730;11.110;2022-10-16T17:33:10;16.30;99.90
33739;DHT22;20063;51.730;11.110;2022-10-16T17:35:38;16.30;99.90